createdAt,value
2022-12-11T00:00:59.084Z,10.27
2022-12-11T00:03:28.845Z,7.80
2022-12-11T00:05:57.048Z,8.03
2022-12-11T00:08:25.339Z,8.57
2022-12-11T00:10:53.617Z,8.10
2022-12-11T00:13:22.109Z,10.30
2022-12-11T00:15:50.278Z,10.63
2022-12-11T00:18:19.009Z,8.80
2022-12-11T00:20:48.523Z,8.20
2022-12-11T00:23:16.854Z,9.33
2022-12-11T00:25:46.337Z,8.83
2022-12-11T00:28:16.930Z,7.93
2022-12-11T00:30:45.059Z,9.33
2022-12-11T00:33:14.893Z,9.63
2022-12-11T00:35:44.994Z,10.70
2022-12-11T00:38:18.787Z,9.57
2022-12-11T00:40:47.072Z,10.27
2022-12-11T00:43:16.042Z,12.30
2022-12-11T00:45:46.698Z,9.93
2022-12-11T00:48:15.184Z,11.20
2022-12-11T00:50:43.799Z,11.27
2022-12-11T00:53:12.144Z,13.73
2022-12-11T00:55:43.490Z,11.00
2022-12-11T00:58:12.838Z,12.30
2022-12-11T01:00:41.896Z,11.50
2022-12-11T01:03:10.213Z,12.07
2022-12-11T01:05:38.358Z,12.40
2022-12-11T01:08:06.766Z,12.47
2022-12-11T01:10:34.333Z,12.20
2022-12-11T01:13:07.840Z,13.03
2022-12-11T01:15:41.792Z,12.40
2022-12-11T01:18:10.874Z,11.87
2022-12-11T01:20:40.507Z,12.50
2022-12-11T01:23:09.045Z,14.43
2022-12-11T01:25:39.358Z,12.90
2022-12-11T01:28:09.523Z,14.23
2022-12-11T01:30:38.361Z,12.73
2022-12-11T01:33:06.505Z,11.87
2022-12-11T01:35:34.690Z,12.33
2022-12-11T01:38:03.431Z,13.17
2022-12-11T01:40:31.657Z,12.60
2022-12-11T01:42:59.880Z,12.23
2022-12-11T01:45:38.907Z,14.83
2022-12-11T01:48:12.206Z,14.57
2022-12-11T01:50:44.708Z,13.00
2022-12-11T01:53:19.122Z,13.73
2022-12-11T01:55:49.748Z,13.23
2022-12-11T01:58:19.694Z,15.50
2022-12-11T02:00:49.441Z,14.00
2022-12-11T02:03:17.851Z,13.00
2022-12-11T02:05:46.338Z,14.07
2022-12-11T02:08:15.224Z,13.20
2022-12-11T02:11:06.829Z,12.80
2022-12-11T02:13:43.430Z,12.70
2022-12-11T02:16:21.389Z,13.40
2022-12-11T02:18:57.603Z,13.63
2022-12-11T02:21:29.315Z,13.77
2022-12-11T02:24:16.165Z,15.10
2022-12-11T02:27:03.374Z,13.80
2022-12-11T02:29:38.381Z,14.17
2022-12-11T02:32:12.559Z,14.00
2022-12-11T02:34:46.218Z,12.60
2022-12-11T02:37:19.963Z,13.83
2022-12-11T02:39:50.231Z,13.50
2022-12-11T02:42:21.840Z,12.80
2022-12-11T02:44:53.044Z,14.60
2022-12-11T02:47:22.703Z,14.13
2022-12-11T02:49:52.470Z,13.60
2022-12-11T02:52:24.692Z,12.13
2022-12-11T02:54:55.528Z,13.43
2022-12-11T02:57:29.753Z,13.60
2022-12-11T02:59:59.338Z,12.43
2022-12-11T03:02:28.128Z,12.90
2022-12-11T03:04:57.769Z,13.07
2022-12-11T03:07:29.003Z,15.10
2022-12-11T03:09:57.284Z,14.30
2022-12-11T03:12:29.483Z,13.40
2022-12-11T03:15:01.024Z,13.30
2022-12-11T03:17:33.910Z,14.27
2022-12-11T03:20:08.616Z,12.07
2022-12-11T03:22:42.910Z,14.57
2022-12-11T03:25:16.334Z,14.60
2022-12-11T03:27:49.513Z,13.13
2022-12-11T03:30:21.979Z,13.60
2022-12-11T03:32:54.417Z,14.30
2022-12-11T03:35:27.889Z,13.43
2022-12-11T03:37:58.367Z,14.10
2022-12-11T03:40:29.169Z,13.27
2022-12-11T03:42:58.919Z,12.77
2022-12-11T03:45:30.088Z,12.53
2022-12-11T03:48:00.975Z,13.63
2022-12-11T03:50:32.571Z,13.33
2022-12-11T03:53:03.018Z,13.90
2022-12-11T03:55:34.117Z,12.47
2022-12-11T03:58:02.569Z,13.60
2022-12-11T04:00:32.231Z,13.10
2022-12-11T04:03:16.596Z,11.40
2022-12-11T04:05:47.552Z,11.93
2022-12-11T04:08:17.022Z,11.80
2022-12-11T04:10:45.493Z,12.40
2022-12-11T04:13:14.340Z,12.67
2022-12-11T04:15:43.083Z,11.50
2022-12-11T04:18:29.027Z,11.87
2022-12-11T04:21:15.302Z,11.70
2022-12-11T04:24:00.998Z,12.47
2022-12-11T04:26:29.362Z,12.73
2022-12-11T04:28:57.502Z,13.70
2022-12-11T04:31:27.186Z,12.23
2022-12-11T04:33:55.359Z,12.63
2022-12-11T04:36:23.942Z,13.43
2022-12-11T04:38:52.087Z,12.20
2022-12-11T04:41:20.419Z,13.10
2022-12-11T04:43:48.515Z,13.00
2022-12-11T04:46:19.126Z,13.10
2022-12-11T04:48:55.415Z,12.50
2022-12-11T04:51:24.326Z,11.73
2022-12-11T04:53:52.514Z,13.00
2022-12-11T04:56:20.837Z,12.20
2022-12-11T04:58:49.532Z,12.17
2022-12-11T05:01:19.870Z,11.20
2022-12-11T05:03:49.681Z,10.80
2022-12-11T05:06:17.947Z,10.80
2022-12-11T05:08:46.418Z,11.70
2022-12-11T05:11:16.291Z,11.10
2022-12-11T05:13:45.486Z,11.30
2022-12-11T05:16:16.871Z,11.97
2022-12-11T05:18:45.619Z,12.53
2022-12-11T05:21:16.825Z,11.20
2022-12-11T05:23:45.056Z,11.13
2022-12-11T05:26:15.403Z,11.57
2022-12-11T05:28:44.369Z,10.80
2022-12-11T05:31:17.257Z,11.30
2022-12-11T05:33:46.366Z,9.97
2022-12-11T05:36:18.393Z,10.40
2022-12-11T05:38:47.350Z,9.60
2022-12-11T05:41:17.480Z,9.40
2022-12-11T05:43:46.390Z,10.20
2022-12-11T05:46:17.023Z,9.20
2022-12-11T05:48:47.674Z,9.70
2022-12-11T05:51:18.011Z,8.73
2022-12-11T05:53:47.810Z,8.60
2022-12-11T05:56:18.159Z,9.50
2022-12-11T05:58:47.058Z,8.70
2022-12-11T06:01:18.124Z,8.70
2022-12-11T06:03:46.242Z,8.90
2022-12-11T06:06:16.412Z,8.70
2022-12-11T06:08:44.631Z,10.00
2022-12-11T06:11:17.280Z,8.67
2022-12-11T06:13:48.081Z,8.57
2022-12-11T06:16:16.728Z,9.33
2022-12-11T06:18:46.354Z,9.23
2022-12-11T06:21:17.563Z,9.20
2022-12-11T06:23:46.918Z,10.03
2022-12-11T06:26:16.613Z,9.60
2022-12-11T06:28:45.295Z,9.93
2022-12-11T06:31:14.281Z,10.53
2022-12-11T06:33:44.630Z,10.33
2022-12-11T06:36:15.759Z,9.90
2022-12-11T06:38:46.099Z,11.00
2022-12-11T06:41:15.365Z,10.27
2022-12-11T06:43:44.452Z,8.57
2022-12-11T06:46:15.213Z,9.03
2022-12-11T06:48:44.751Z,9.60
2022-12-11T06:51:15.515Z,10.27
2022-12-11T06:53:45.579Z,9.03
2022-12-11T06:56:16.138Z,8.40
2022-12-11T06:58:45.164Z,8.63
2022-12-11T07:01:19.100Z,9.10
2022-12-11T07:03:47.870Z,8.80
2022-12-11T07:06:17.117Z,8.63
2022-12-11T07:08:46.923Z,8.63
2022-12-11T07:11:16.966Z,9.10
2022-12-11T07:13:45.960Z,9.10
2022-12-11T07:16:16.567Z,10.03
2022-12-11T07:18:48.538Z,8.80
2022-12-11T07:21:16.980Z,8.20
2022-12-11T07:23:46.784Z,8.23
2022-12-11T07:26:17.184Z,7.83
2022-12-11T07:28:45.824Z,8.20
2022-12-11T07:31:16.451Z,8.93
2022-12-11T07:33:45.344Z,9.40
2022-12-11T07:36:15.544Z,7.20
2022-12-11T07:38:43.709Z,7.83
2022-12-11T07:41:14.884Z,8.10
2022-12-11T07:43:44.195Z,7.20
2022-12-11T07:46:14.294Z,6.70
2022-12-11T07:48:44.417Z,8.40
2022-12-11T07:51:16.179Z,8.30
2022-12-11T07:53:44.494Z,7.33
2022-12-11T07:56:14.615Z,7.43
2022-12-11T07:58:43.103Z,7.57
2022-12-11T08:01:13.084Z,8.30
2022-12-11T08:03:42.319Z,7.07
2022-12-11T08:06:11.087Z,6.83
2022-12-11T08:08:39.252Z,6.70
2022-12-11T08:11:09.182Z,8.60
2022-12-11T08:13:39.175Z,6.47
2022-12-11T08:16:09.362Z,6.17
2022-12-11T08:18:38.845Z,6.77
2022-12-11T08:21:08.303Z,6.60
2022-12-11T08:23:36.678Z,6.80
2022-12-11T08:26:06.293Z,8.23
2022-12-11T08:28:34.900Z,7.13
2022-12-11T08:31:08.280Z,6.27
2022-12-11T08:33:37.556Z,7.47
2022-12-11T08:36:07.229Z,5.77
2022-12-11T08:38:35.811Z,7.30
2022-12-11T08:41:09.837Z,6.60
2022-12-11T08:43:38.480Z,5.30
2022-12-11T08:46:08.829Z,5.23
2022-12-11T08:48:38.533Z,4.87
2022-12-11T08:51:08.880Z,4.47
2022-12-11T08:53:37.028Z,5.00
2022-12-11T08:56:06.766Z,5.10
2022-12-11T08:58:36.114Z,5.13
2022-12-11T09:01:10.211Z,4.70
2022-12-11T09:03:40.031Z,4.77
2022-12-11T09:06:10.008Z,5.40
2022-12-11T09:08:38.339Z,4.70
2022-12-11T09:11:07.644Z,4.97
2022-12-11T09:13:36.056Z,5.00
2022-12-11T09:16:06.037Z,4.30
2022-12-11T09:18:35.691Z,5.27
2022-12-11T09:21:06.035Z,5.03
2022-12-11T09:23:34.630Z,4.03
2022-12-11T09:26:05.913Z,5.13
2022-12-11T09:28:34.863Z,4.37
2022-12-11T09:31:03.192Z,3.93
2022-12-11T09:33:31.323Z,5.53
2022-12-11T09:36:01.478Z,4.70
2022-12-11T09:38:30.321Z,4.60
2022-12-11T09:40:58.646Z,4.90
2022-12-11T09:43:39.314Z,5.43
2022-12-11T09:46:12.017Z,3.73
2022-12-11T09:48:43.299Z,3.87
2022-12-11T09:51:23.288Z,4.73
2022-12-11T09:53:52.878Z,3.80
2022-12-11T09:56:27.091Z,4.13
2022-12-11T09:59:03.748Z,3.73
2022-12-11T10:01:43.814Z,4.47
2022-12-11T10:04:26.279Z,5.60
2022-12-11T10:07:05.598Z,5.27
2022-12-11T10:09:40.960Z,5.73
2022-12-11T10:12:24.301Z,7.50
2022-12-11T10:15:06.519Z,7.57
2022-12-11T10:17:43.316Z,6.53
2022-12-11T10:20:20.877Z,6.53
2022-12-11T10:22:51.701Z,6.80
2022-12-11T10:25:22.905Z,6.03
2022-12-11T10:27:51.240Z,6.50
2022-12-11T10:30:21.477Z,7.43
2022-12-11T10:32:55.689Z,7.00
2022-12-11T10:35:37.281Z,6.43
2022-12-11T10:38:16.345Z,6.80
2022-12-11T10:40:46.544Z,7.43
2022-12-11T10:43:15.143Z,8.13
2022-12-11T10:45:53.044Z,8.30
2022-12-11T10:48:22.159Z,7.80
2022-12-11T10:51:01.412Z,9.20
2022-12-11T10:53:32.686Z,9.50
2022-12-11T10:56:01.398Z,8.80
2022-12-11T10:58:34.403Z,9.50
2022-12-11T11:01:09.898Z,9.57
2022-12-11T11:03:45.629Z,10.13
2022-12-11T11:06:18.256Z,10.60
2022-12-11T11:08:49.584Z,10.37
2022-12-11T11:11:30.068Z,10.07
2022-12-11T11:14:16.646Z,12.87
2022-12-11T11:16:47.006Z,11.50
2022-12-11T11:19:27.232Z,12.10
2022-12-11T11:21:59.674Z,12.90
2022-12-11T11:24:34.811Z,11.93
2022-12-11T11:27:19.038Z,12.40
2022-12-11T11:29:51.658Z,11.67
2022-12-11T11:32:25.185Z,12.40
2022-12-11T11:34:53.535Z,12.07
2022-12-11T11:37:32.164Z,11.30
2022-12-11T11:40:12.457Z,12.23
2022-12-11T11:43:08.417Z,12.23
2022-12-11T11:45:42.156Z,11.63
2022-12-11T11:48:27.494Z,10.50
2022-12-11T11:50:57.420Z,11.97
2022-12-11T11:53:33.194Z,13.60
2022-12-11T11:56:16.623Z,12.20
2022-12-11T11:58:49.008Z,10.03
2022-12-11T12:01:20.190Z,10.50
2022-12-11T12:03:50.256Z,11.47
2022-12-11T12:06:30.234Z,11.33
2022-12-11T12:09:11.403Z,10.93
2022-12-11T12:11:48.107Z,11.33
2022-12-11T12:14:50.990Z,9.97
2022-12-11T12:17:22.624Z,10.00
2022-12-11T12:20:01.088Z,9.30
2022-12-11T12:22:46.124Z,11.50
2022-12-11T12:25:20.050Z,9.80
2022-12-11T12:27:59.274Z,9.73
2022-12-11T12:30:33.004Z,10.63
2022-12-11T12:33:15.186Z,10.87
2022-12-11T12:35:51.905Z,8.77
2022-12-11T12:38:24.911Z,9.57
2022-12-11T12:41:04.958Z,9.40
2022-12-11T12:43:54.428Z,9.60
2022-12-11T12:46:35.450Z,10.13
2022-12-11T12:49:05.562Z,8.33
2022-12-11T12:51:33.935Z,10.50
2022-12-11T12:54:11.960Z,9.33
2022-12-11T12:56:43.754Z,8.83
2022-12-11T12:59:24.092Z,10.53
2022-12-11T13:01:57.178Z,8.90
2022-12-11T13:04:58.169Z,10.50
2022-12-11T13:07:30.892Z,9.40
2022-12-11T13:10:06.684Z,9.57
2022-12-11T13:12:43.380Z,9.00
2022-12-11T13:15:40.802Z,11.87
2022-12-11T13:18:34.882Z,10.00
2022-12-11T13:21:03.437Z,11.90
2022-12-11T13:23:33.930Z,12.07
2022-12-11T13:26:03.553Z,8.20
2022-12-11T13:28:35.072Z,9.70
2022-12-11T13:31:08.612Z,9.20
2022-12-11T13:33:43.721Z,7.87
2022-12-11T13:36:28.593Z,7.60
2022-12-11T13:39:00.548Z,8.93
2022-12-11T13:41:29.948Z,8.67
2022-12-11T13:43:59.202Z,8.13
2022-12-11T13:46:32.473Z,9.17
2022-12-11T13:49:03.602Z,8.70
2022-12-11T13:51:35.143Z,8.43
2022-12-11T13:54:17.330Z,7.50
2022-12-11T13:57:02.738Z,9.03
2022-12-11T13:59:34.309Z,9.77
2022-12-11T14:02:12.130Z,9.60
2022-12-11T14:04:40.934Z,9.10
2022-12-11T14:07:11.052Z,10.90
2022-12-11T14:09:43.642Z,11.80
2022-12-11T14:12:21.957Z,10.80
2022-12-11T14:14:54.572Z,12.63
2022-12-11T14:17:26.710Z,16.17
2022-12-11T14:19:57.194Z,12.30
2022-12-11T14:22:28.077Z,10.67
2022-12-11T14:24:58.184Z,10.10
2022-12-11T14:27:28.150Z,12.37
2022-12-11T14:29:57.095Z,13.63
2022-12-11T14:32:33.974Z,12.63
2022-12-11T14:35:06.042Z,10.00
2022-12-11T14:37:37.200Z,9.53
2022-12-11T14:40:10.087Z,10.30
2022-12-11T14:42:42.547Z,11.40
2022-12-11T14:45:20.568Z,14.17
2022-12-11T14:47:52.771Z,11.90
2022-12-11T14:50:24.118Z,21.37
2022-12-11T14:52:56.941Z,13.50
2022-12-11T14:55:28.503Z,16.83
2022-12-11T14:57:59.110Z,18.60
2022-12-11T15:00:29.377Z,16.53
2022-12-11T15:03:04.532Z,15.80
2022-12-11T15:05:40.408Z,26.27
2022-12-11T15:08:24.933Z,12.40
2022-12-11T15:11:16.136Z,10.50
2022-12-11T15:13:53.671Z,8.37
2022-12-11T15:16:24.056Z,11.40
2022-12-11T15:18:56.660Z,9.40
2022-12-11T15:21:31.098Z,8.37
2022-12-11T15:24:01.881Z,9.00
2022-12-11T15:26:38.808Z,8.30
2022-12-11T15:29:24.248Z,8.43
2022-12-11T15:32:01.673Z,9.10
2022-12-11T15:34:36.383Z,9.27
2022-12-11T15:37:04.540Z,9.90
2022-12-11T15:39:32.687Z,8.30
2022-12-11T15:42:08.274Z,8.30
2022-12-11T15:44:36.405Z,8.30
2022-12-11T15:47:13.429Z,7.20
2022-12-11T15:49:43.056Z,7.40
2022-12-11T15:52:11.440Z,7.83
2022-12-11T15:54:39.615Z,9.07
2022-12-11T15:57:14.777Z,8.60
2022-12-11T15:59:42.963Z,9.57
2022-12-11T16:02:13.492Z,8.87
2022-12-11T16:04:43.160Z,6.90
2022-12-11T16:07:17.806Z,7.30
2022-12-11T16:09:46.208Z,8.63
2022-12-11T16:12:15.262Z,6.20
2022-12-11T16:14:43.917Z,6.33
2022-12-11T16:17:13.356Z,6.63
2022-12-11T16:19:44.308Z,6.60
2022-12-11T16:22:14.242Z,6.43
2022-12-11T16:24:43.099Z,5.60
2022-12-11T16:27:11.445Z,7.57
2022-12-11T16:29:41.081Z,6.23
2022-12-11T16:32:10.695Z,7.27
2022-12-11T16:34:39.460Z,8.57
2022-12-11T16:37:10.710Z,9.70
2022-12-11T16:39:39.713Z,9.80
2022-12-11T16:42:08.247Z,9.70
2022-12-11T16:44:40.940Z,8.27
2022-12-11T16:47:12.048Z,6.20
2022-12-11T16:49:40.715Z,6.20
2022-12-11T16:52:10.806Z,5.70
2022-12-11T16:54:39.060Z,5.40
2022-12-11T16:57:07.258Z,3.53
2022-12-11T16:59:37.634Z,3.03
2022-12-11T17:02:06.692Z,3.30
2022-12-11T17:04:34.740Z,4.10
2022-12-11T17:07:02.871Z,3.97
2022-12-11T17:09:32.884Z,3.80
2022-12-11T17:12:01.152Z,3.20
2022-12-11T17:14:29.961Z,3.63
2022-12-11T17:16:58.406Z,3.17
2022-12-11T17:19:26.580Z,2.67
2022-12-11T17:21:56.066Z,3.50
2022-12-11T17:24:24.316Z,3.00
2022-12-11T17:26:55.868Z,4.53
2022-12-11T17:29:23.988Z,3.70
2022-12-11T17:31:52.822Z,5.90
2022-12-11T17:34:21.105Z,7.10
2022-12-11T17:36:49.255Z,5.30
2022-12-11T17:39:17.668Z,5.20
2022-12-11T17:41:46.002Z,5.30
2022-12-11T17:44:15.772Z,4.10
2022-12-11T17:46:43.975Z,4.70
2022-12-11T17:49:12.137Z,3.90
2022-12-11T17:51:40.452Z,3.60
2022-12-11T17:54:08.739Z,3.37
2022-12-11T17:56:37.291Z,4.23
2022-12-11T17:59:06.203Z,4.00
2022-12-11T18:01:35.813Z,3.70
2022-12-11T18:04:04.287Z,3.57
2022-12-11T18:06:32.904Z,3.40
2022-12-11T18:09:01.502Z,3.43
2022-12-11T18:11:29.740Z,3.80
2022-12-11T18:13:58.281Z,2.93
2022-12-11T18:16:28.712Z,3.07
2022-12-11T18:18:58.792Z,3.40
2022-12-11T18:21:29.068Z,3.87
2022-12-11T18:23:57.809Z,2.70
2022-12-11T18:26:26.675Z,3.57
2022-12-11T18:28:55.361Z,5.43
2022-12-11T18:31:25.212Z,5.00
2022-12-11T18:33:53.766Z,4.57
2022-12-11T18:36:23.509Z,2.90
2022-12-11T18:38:52.061Z,3.37
2022-12-11T18:41:21.407Z,4.87
2022-12-11T18:43:49.853Z,3.10
2022-12-11T18:46:20.400Z,3.30
2022-12-11T18:48:49.829Z,4.20
2022-12-11T18:51:20.264Z,3.80
2022-12-11T18:53:50.215Z,3.80
2022-12-11T18:56:20.176Z,3.83
2022-12-11T18:58:48.972Z,4.40
2022-12-11T19:01:20.014Z,4.17
2022-12-11T19:03:48.806Z,4.47
2022-12-11T19:06:19.002Z,4.63
2022-12-11T19:08:47.583Z,4.83
2022-12-11T19:11:19.148Z,4.60
2022-12-11T19:13:48.528Z,5.40
2022-12-11T19:16:18.871Z,5.13
2022-12-11T19:18:47.024Z,5.43
2022-12-11T19:21:17.666Z,3.80
2022-12-11T19:23:46.589Z,5.00
2022-12-11T19:26:18.521Z,5.40
2022-12-11T19:28:46.738Z,4.30
2022-12-11T19:31:18.930Z,4.40
2022-12-11T19:33:47.483Z,3.70
2022-12-11T19:36:17.542Z,5.07
2022-12-11T19:38:46.483Z,3.73
2022-12-11T19:41:18.061Z,4.60
2022-12-11T19:43:46.861Z,6.53
2022-12-11T19:46:16.020Z,8.40
2022-12-11T19:48:44.901Z,7.70
2022-12-11T19:51:15.122Z,8.57
2022-12-11T19:53:44.950Z,8.50
2022-12-11T19:56:14.160Z,7.60
2022-12-11T19:58:43.883Z,6.23
2022-12-11T20:01:19.722Z,5.80
2022-12-11T20:03:48.054Z,6.30
2022-12-11T20:06:16.183Z,5.97
2022-12-11T20:08:45.916Z,6.33
2022-12-11T20:11:18.700Z,5.40
2022-12-11T20:13:49.516Z,4.90
2022-12-11T20:16:28.902Z,4.50
2022-12-11T20:19:08.398Z,5.10
2022-12-11T20:21:36.681Z,6.47
2022-12-11T20:24:05.170Z,6.23
2022-12-11T20:26:36.049Z,5.30
2022-12-11T20:29:08.050Z,4.67
2022-12-11T20:31:37.868Z,4.40
2022-12-11T20:34:06.595Z,3.47
2022-12-11T20:36:35.620Z,3.47
2022-12-11T20:39:04.144Z,3.13
2022-12-11T20:41:32.449Z,2.63
2022-12-11T20:44:00.838Z,3.07
2022-12-11T20:46:30.595Z,2.53
2022-12-11T20:48:59.668Z,3.43
2022-12-11T20:51:29.205Z,2.90
2022-12-11T20:53:59.636Z,3.37
2022-12-11T20:56:29.739Z,3.50
2022-12-11T20:58:58.688Z,2.83
2022-12-11T21:01:29.165Z,3.40
2022-12-11T21:04:01.638Z,3.40
2022-12-11T21:06:32.566Z,3.50
2022-12-11T21:09:01.640Z,3.90
2022-12-11T21:11:29.868Z,3.27
2022-12-11T21:13:58.336Z,3.43
2022-12-11T21:16:27.543Z,3.53
2022-12-11T21:18:56.695Z,3.30
2022-12-11T21:21:27.175Z,2.80
2022-12-11T21:23:55.745Z,2.80
2022-12-11T21:26:24.190Z,2.77
2022-12-11T21:28:53.322Z,2.43
2022-12-11T21:31:22.039Z,2.00
2022-12-11T21:33:50.250Z,2.20
2022-12-11T21:36:18.836Z,1.93
2022-12-11T21:38:49.272Z,2.07
2022-12-11T21:41:20.415Z,2.17
2022-12-11T21:46:39.794Z,2.00
2022-12-11T21:49:08.464Z,2.10
2022-12-11T21:51:41.509Z,3.23
2022-12-11T21:54:20.733Z,2.70
2022-12-11T21:56:48.978Z,3.03
2022-12-11T21:59:17.198Z,2.83
2022-12-11T22:01:47.133Z,2.97
2022-12-11T22:04:16.814Z,2.90
2022-12-11T22:06:47.253Z,2.93
2022-12-11T22:09:18.087Z,3.23
2022-12-11T22:11:47.551Z,3.53
2022-12-11T22:14:18.386Z,3.20
2022-12-11T22:16:47.008Z,3.70
2022-12-11T22:19:15.437Z,3.73
2022-12-11T22:21:43.899Z,4.07
2022-12-11T22:24:12.025Z,4.00
2022-12-11T22:26:42.117Z,3.67
2022-12-11T22:29:10.296Z,3.33
2022-12-11T22:31:38.813Z,3.50
2022-12-11T22:34:10.570Z,3.77
2022-12-11T22:36:39.052Z,3.87
2022-12-11T22:39:07.487Z,4.30
2022-12-11T22:41:38.419Z,4.17
2022-12-11T22:44:08.008Z,3.80
2022-12-11T22:46:36.330Z,3.60
2022-12-11T22:49:05.703Z,3.70
2022-12-11T22:51:34.328Z,3.53
2022-12-11T22:54:02.632Z,3.73
2022-12-11T22:56:31.054Z,3.23
2022-12-11T22:58:59.951Z,4.63
2022-12-11T23:01:29.656Z,3.97
2022-12-11T23:03:58.160Z,3.73
2022-12-11T23:06:26.384Z,3.80
2022-12-11T23:08:59.878Z,4.30
2022-12-11T23:11:30.299Z,4.30
2022-12-11T23:13:59.098Z,4.00
2022-12-11T23:16:29.276Z,3.90
2022-12-11T23:18:58.209Z,3.90
2022-12-11T23:21:29.721Z,3.60
2022-12-11T23:23:59.112Z,4.10
2022-12-11T23:26:28.969Z,3.67
2022-12-11T23:28:58.415Z,2.83
2022-12-11T23:31:27.916Z,3.00
2022-12-11T23:33:58.415Z,2.90
2022-12-11T23:36:27.564Z,2.97
2022-12-11T23:38:56.406Z,2.50
2022-12-11T23:41:24.681Z,2.50
2022-12-11T23:43:53.099Z,3.57
2022-12-11T23:46:23.202Z,3.23
2022-12-11T23:48:52.780Z,3.70
2022-12-11T23:51:23.994Z,3.90
2022-12-11T23:53:53.522Z,3.83
2022-12-11T23:56:23.187Z,3.50
2022-12-11T23:58:51.988Z,3.87
